sensor_id;sensor_type;location;lat;lon;timestamp;P1;durP1;ratioP1;P2;durP2;ratioP2
50161;SDS011;36061;48.116;11.612;2023-08-06T00:00:15;4.73;;;3.40;;
50161;SDS011;36061;48.116;11.612;2023-08-06T00:02:43;3.70;;;3.30;;
50161;SDS011;36061;48.116;11.612;2023-08-06T00:05:10;6.00;;;3.30;;
50161;SDS011;36061;48.116;11.612;2023-08-06T00:07:37;4.53;;;3.10;;
50161;SDS011;36061;48.116;11.612;2023-08-06T00:10:05;3.63;;;3.10;;
50161;SDS011;36061;48.116;11.612;2023-08-06T00:12:34;4.53;;;3.60;;
50161;SDS011;36061;48.116;11.612;2023-08-06T00:15:01;3.93;;;3.20;;
50161;SDS011;36061;48.116;11.612;2023-08-06T00:17:29;4.80;;;3.33;;
50161;SDS011;36061;48.116;11.612;2023-08-06T00:19:56;3.13;;;2.87;;
50161;SDS011;36061;48.116;11.612;2023-08-06T00:22:23;5.17;;;3.57;;
50161;SDS011;36061;48.116;11.612;2023-08-06T00:24:51;5.17;;;3.03;;
50161;SDS011;36061;48.116;11.612;2023-08-06T00:27:18;4.13;;;3.20;;
50161;SDS011;36061;48.116;11.612;2023-08-06T00:29:47;3.33;;;2.93;;
50161;SDS011;36061;48.116;11.612;2023-08-06T00:32:14;3.40;;;2.90;;
50161;SDS011;36061;48.116;11.612;2023-08-06T00:34:41;3.50;;;2.60;;
50161;SDS011;36061;48.116;11.612;2023-08-06T00:37:09;3.60;;;2.90;;
50161;SDS011;36061;48.116;11.612;2023-08-06T00:39:36;4.83;;;3.00;;
50161;SDS011;36061;48.116;11.612;2023-08-06T00:42:04;6.27;;;2.57;;
50161;SDS011;36061;48.116;11.612;2023-08-06T00:44:32;4.37;;;2.80;;
50161;SDS011;36061;48.116;11.612;2023-08-06T00:47:01;3.83;;;2.47;;
50161;SDS011;36061;48.116;11.612;2023-08-06T00:49:29;3.10;;;2.80;;
50161;SDS011;36061;48.116;11.612;2023-08-06T00:51:57;2.80;;;2.33;;
50161;SDS011;36061;48.116;11.612;2023-08-06T00:54:24;4.13;;;2.80;;
50161;SDS011;36061;48.116;11.612;2023-08-06T00:56:54;5.30;;;2.70;;
50161;SDS011;36061;48.116;11.612;2023-08-06T00:59:23;3.50;;;2.73;;
50161;SDS011;36061;48.116;11.612;2023-08-06T01:01:51;2.77;;;2.50;;
50161;SDS011;36061;48.116;11.612;2023-08-06T01:04:21;2.90;;;2.43;;
50161;SDS011;36061;48.116;11.612;2023-08-06T01:06:52;3.00;;;2.70;;
50161;SDS011;36061;48.116;11.612;2023-08-06T01:09:34;3.90;;;2.47;;
50161;SDS011;36061;48.116;11.612;2023-08-06T01:12:15;3.33;;;2.30;;
50161;SDS011;36061;48.116;11.612;2023-08-06T01:14:51;4.13;;;2.43;;
50161;SDS011;36061;48.116;11.612;2023-08-06T01:17:22;3.60;;;2.50;;
50161;SDS011;36061;48.116;11.612;2023-08-06T01:19:53;3.40;;;3.00;;
50161;SDS011;36061;48.116;11.612;2023-08-06T01:22:22;2.50;;;2.30;;
50161;SDS011;36061;48.116;11.612;2023-08-06T01:24:49;6.07;;;2.70;;
50161;SDS011;36061;48.116;11.612;2023-08-06T01:27:20;3.57;;;2.67;;
50161;SDS011;36061;48.116;11.612;2023-08-06T01:29:56;3.07;;;2.70;;
50161;SDS011;36061;48.116;11.612;2023-08-06T01:32:30;3.83;;;2.93;;
50161;SDS011;36061;48.116;11.612;2023-08-06T01:35:00;5.57;;;3.33;;
50161;SDS011;36061;48.116;11.612;2023-08-06T01:37:31;4.70;;;2.97;;
50161;SDS011;36061;48.116;11.612;2023-08-06T01:40:05;7.07;;;3.63;;
50161;SDS011;36061;48.116;11.612;2023-08-06T01:42:33;4.63;;;3.53;;
50161;SDS011;36061;48.116;11.612;2023-08-06T01:45:00;6.17;;;3.17;;
50161;SDS011;36061;48.116;11.612;2023-08-06T01:47:28;4.90;;;3.20;;
50161;SDS011;36061;48.116;11.612;2023-08-06T01:49:55;4.90;;;3.47;;
50161;SDS011;36061;48.116;11.612;2023-08-06T01:52:22;4.53;;;3.20;;
50161;SDS011;36061;48.116;11.612;2023-08-06T01:54:51;3.73;;;2.90;;
50161;SDS011;36061;48.116;11.612;2023-08-06T01:57:18;5.93;;;3.40;;
50161;SDS011;36061;48.116;11.612;2023-08-06T01:59:45;3.07;;;2.47;;
50161;SDS011;36061;48.116;11.612;2023-08-06T02:02:12;6.27;;;3.60;;
50161;SDS011;36061;48.116;11.612;2023-08-06T02:04:40;4.57;;;3.50;;
50161;SDS011;36061;48.116;11.612;2023-08-06T02:07:07;4.90;;;3.07;;
50161;SDS011;36061;48.116;11.612;2023-08-06T02:09:34;3.40;;;3.00;;
50161;SDS011;36061;48.116;11.612;2023-08-06T02:12:03;5.37;;;3.37;;
50161;SDS011;36061;48.116;11.612;2023-08-06T02:14:31;4.00;;;2.87;;
50161;SDS011;36061;48.116;11.612;2023-08-06T02:16:59;3.43;;;2.83;;
50161;SDS011;36061;48.116;11.612;2023-08-06T02:19:26;4.07;;;2.53;;
50161;SDS011;36061;48.116;11.612;2023-08-06T02:21:53;3.93;;;3.03;;
50161;SDS011;36061;48.116;11.612;2023-08-06T02:24:21;5.53;;;2.40;;
50161;SDS011;36061;48.116;11.612;2023-08-06T02:26:48;3.73;;;2.93;;
50161;SDS011;36061;48.116;11.612;2023-08-06T02:29:18;2.87;;;2.57;;
50161;SDS011;36061;48.116;11.612;2023-08-06T02:31:45;2.57;;;2.10;;
50161;SDS011;36061;48.116;11.612;2023-08-06T02:34:12;3.67;;;2.23;;
50161;SDS011;36061;48.116;11.612;2023-08-06T02:36:39;2.50;;;2.30;;
50161;SDS011;36061;48.116;11.612;2023-08-06T02:39:07;2.77;;;2.30;;
50161;SDS011;36061;48.116;11.612;2023-08-06T02:41:34;2.30;;;2.10;;
50161;SDS011;36061;48.116;11.612;2023-08-06T02:44:01;3.50;;;2.40;;
50161;SDS011;36061;48.116;11.612;2023-08-06T02:46:30;2.47;;;2.10;;
50161;SDS011;36061;48.116;11.612;2023-08-06T02:48:57;2.60;;;2.10;;
50161;SDS011;36061;48.116;11.612;2023-08-06T02:51:25;2.40;;;1.93;;
50161;SDS011;36061;48.116;11.612;2023-08-06T02:53:52;4.07;;;1.70;;
50161;SDS011;36061;48.116;11.612;2023-08-06T02:56:20;2.60;;;2.20;;
50161;SDS011;36061;48.116;11.612;2023-08-06T02:59:05;2.63;;;2.13;;
50161;SDS011;36061;48.116;11.612;2023-08-06T03:01:44;2.30;;;2.10;;
50161;SDS011;36061;48.116;11.612;2023-08-06T03:04:18;2.10;;;1.90;;
50161;SDS011;36061;48.116;11.612;2023-08-06T03:06:48;2.33;;;2.13;;
50161;SDS011;36061;48.116;11.612;2023-08-06T03:09:16;2.33;;;2.07;;
50161;SDS011;36061;48.116;11.612;2023-08-06T03:11:44;2.80;;;1.83;;
50161;SDS011;36061;48.116;11.612;2023-08-06T03:14:14;2.83;;;2.00;;
50161;SDS011;36061;48.116;11.612;2023-08-06T03:16:42;1.87;;;1.70;;
50161;SDS011;36061;48.116;11.612;2023-08-06T03:19:14;2.57;;;2.00;;
50161;SDS011;36061;48.116;11.612;2023-08-06T03:21:41;2.07;;;1.87;;
50161;SDS011;36061;48.116;11.612;2023-08-06T03:24:08;2.97;;;2.00;;
50161;SDS011;36061;48.116;11.612;2023-08-06T03:26:38;1.90;;;1.67;;
50161;SDS011;36061;48.116;11.612;2023-08-06T03:29:05;3.20;;;1.77;;
50161;SDS011;36061;48.116;11.612;2023-08-06T03:31:34;2.07;;;1.83;;
50161;SDS011;36061;48.116;11.612;2023-08-06T03:34:03;1.90;;;1.80;;
50161;SDS011;36061;48.116;11.612;2023-08-06T03:36:31;1.87;;;1.70;;
50161;SDS011;36061;48.116;11.612;2023-08-06T03:39:00;1.70;;;1.60;;
50161;SDS011;36061;48.116;11.612;2023-08-06T03:41:29;1.47;;;1.37;;
50161;SDS011;36061;48.116;11.612;2023-08-06T03:43:57;1.83;;;1.73;;
50161;SDS011;36061;48.116;11.612;2023-08-06T03:46:26;3.17;;;1.83;;
50161;SDS011;36061;48.116;11.612;2023-08-06T03:48:53;1.83;;;1.73;;
50161;SDS011;36061;48.116;11.612;2023-08-06T03:51:23;2.53;;;2.00;;
50161;SDS011;36061;48.116;11.612;2023-08-06T03:53:52;1.87;;;1.73;;
50161;SDS011;36061;48.116;11.612;2023-08-06T03:56:19;2.10;;;1.80;;
50161;SDS011;36061;48.116;11.612;2023-08-06T03:58:46;2.67;;;1.63;;
50161;SDS011;36061;48.116;11.612;2023-08-06T04:01:14;2.83;;;1.80;;
50161;SDS011;36061;48.116;11.612;2023-08-06T04:03:44;2.07;;;1.80;;
50161;SDS011;36061;48.116;11.612;2023-08-06T04:06:11;2.17;;;1.93;;
50161;SDS011;36061;48.116;11.612;2023-08-06T04:08:40;2.13;;;1.70;;
50161;SDS011;36061;48.116;11.612;2023-08-06T04:11:08;2.10;;;1.90;;
50161;SDS011;36061;48.116;11.612;2023-08-06T04:13:35;2.00;;;1.60;;
50161;SDS011;36061;48.116;11.612;2023-08-06T04:16:02;2.60;;;1.70;;
50161;SDS011;36061;48.116;11.612;2023-08-06T04:18:31;1.90;;;1.70;;
50161;SDS011;36061;48.116;11.612;2023-08-06T04:20:59;4.80;;;1.70;;
50161;SDS011;36061;48.116;11.612;2023-08-06T04:23:27;1.70;;;1.60;;
50161;SDS011;36061;48.116;11.612;2023-08-06T04:26:00;3.63;;;2.03;;
50161;SDS011;36061;48.116;11.612;2023-08-06T04:28:31;2.60;;;1.47;;
50161;SDS011;36061;48.116;11.612;2023-08-06T04:30:59;1.80;;;1.63;;
50161;SDS011;36061;48.116;11.612;2023-08-06T04:33:27;2.23;;;1.53;;
50161;SDS011;36061;48.116;11.612;2023-08-06T04:35:56;2.67;;;1.80;;
50161;SDS011;36061;48.116;11.612;2023-08-06T04:38:25;1.87;;;1.63;;
50161;SDS011;36061;48.116;11.612;2023-08-06T04:40:54;1.60;;;1.50;;
50161;SDS011;36061;48.116;11.612;2023-08-06T04:43:24;2.00;;;1.67;;
50161;SDS011;36061;48.116;11.612;2023-08-06T04:45:53;2.07;;;1.40;;
50161;SDS011;36061;48.116;11.612;2023-08-06T04:48:21;1.50;;;1.40;;
50161;SDS011;36061;48.116;11.612;2023-08-06T04:50:49;2.43;;;1.90;;
50161;SDS011;36061;48.116;11.612;2023-08-06T04:53:17;3.37;;;1.83;;
50161;SDS011;36061;48.116;11.612;2023-08-06T04:55:44;2.37;;;1.63;;
50161;SDS011;36061;48.116;11.612;2023-08-06T04:58:12;2.47;;;1.87;;
50161;SDS011;36061;48.116;11.612;2023-08-06T05:00:41;3.20;;;1.50;;
50161;SDS011;36061;48.116;11.612;2023-08-06T05:03:08;1.87;;;1.60;;
50161;SDS011;36061;48.116;11.612;2023-08-06T05:05:36;3.23;;;1.70;;
50161;SDS011;36061;48.116;11.612;2023-08-06T05:08:03;2.40;;;1.70;;
50161;SDS011;36061;48.116;11.612;2023-08-06T05:10:30;2.83;;;1.53;;
50161;SDS011;36061;48.116;11.612;2023-08-06T05:12:57;1.80;;;1.50;;
50161;SDS011;36061;48.116;11.612;2023-08-06T05:15:25;2.67;;;1.50;;
50161;SDS011;36061;48.116;11.612;2023-08-06T05:17:53;2.57;;;1.60;;
50161;SDS011;36061;48.116;11.612;2023-08-06T05:20:20;2.23;;;2.03;;
50161;SDS011;36061;48.116;11.612;2023-08-06T05:22:48;4.33;;;2.00;;
50161;SDS011;36061;48.116;11.612;2023-08-06T05:25:15;5.20;;;2.03;;
50161;SDS011;36061;48.116;11.612;2023-08-06T05:27:42;1.57;;;1.37;;
50161;SDS011;36061;48.116;11.612;2023-08-06T05:30:10;1.77;;;1.47;;
50161;SDS011;36061;48.116;11.612;2023-08-06T05:32:37;4.40;;;1.70;;
50161;SDS011;36061;48.116;11.612;2023-08-06T05:35:06;2.13;;;1.50;;
50161;SDS011;36061;48.116;11.612;2023-08-06T05:37:34;2.27;;;1.53;;
50161;SDS011;36061;48.116;11.612;2023-08-06T05:40:01;3.03;;;1.30;;
50161;SDS011;36061;48.116;11.612;2023-08-06T05:42:29;1.90;;;1.60;;
50161;SDS011;36061;48.116;11.612;2023-08-06T05:44:57;1.83;;;1.63;;
50161;SDS011;36061;48.116;11.612;2023-08-06T05:47:24;1.63;;;1.47;;
50161;SDS011;36061;48.116;11.612;2023-08-06T05:49:51;2.07;;;1.70;;
50161;SDS011;36061;48.116;11.612;2023-08-06T05:52:20;2.37;;;1.57;;
50161;SDS011;36061;48.116;11.612;2023-08-06T05:54:47;2.63;;;1.60;;
50161;SDS011;36061;48.116;11.612;2023-08-06T05:57:15;3.00;;;1.50;;
50161;SDS011;36061;48.116;11.612;2023-08-06T05:59:42;2.10;;;1.63;;
50161;SDS011;36061;48.116;11.612;2023-08-06T06:02:10;2.20;;;1.70;;
50161;SDS011;36061;48.116;11.612;2023-08-06T06:04:37;2.13;;;1.43;;
50161;SDS011;36061;48.116;11.612;2023-08-06T06:07:04;3.20;;;1.70;;
50161;SDS011;36061;48.116;11.612;2023-08-06T06:09:33;5.80;;;1.60;;
50161;SDS011;36061;48.116;11.612;2023-08-06T06:12:00;3.73;;;1.70;;
50161;SDS011;36061;48.116;11.612;2023-08-06T06:14:28;3.03;;;1.67;;
50161;SDS011;36061;48.116;11.612;2023-08-06T06:16:55;1.27;;;1.17;;
50161;SDS011;36061;48.116;11.612;2023-08-06T06:19:22;1.30;;;1.20;;
50161;SDS011;36061;48.116;11.612;2023-08-06T06:21:49;3.90;;;1.30;;
50161;SDS011;36061;48.116;11.612;2023-08-06T06:24:16;1.87;;;1.33;;
50161;SDS011;36061;48.116;11.612;2023-08-06T06:26:45;4.17;;;1.50;;
50161;SDS011;36061;48.116;11.612;2023-08-06T06:29:12;2.20;;;1.40;;
50161;SDS011;36061;48.116;11.612;2023-08-06T06:31:39;1.70;;;1.37;;
50161;SDS011;36061;48.116;11.612;2023-08-06T06:34:07;2.23;;;1.53;;
50161;SDS011;36061;48.116;11.612;2023-08-06T06:36:34;4.60;;;1.47;;
50161;SDS011;36061;48.116;11.612;2023-08-06T06:39:01;1.50;;;1.30;;
50161;SDS011;36061;48.116;11.612;2023-08-06T06:41:29;1.77;;;1.33;;
50161;SDS011;36061;48.116;11.612;2023-08-06T06:44:05;2.53;;;1.53;;
50161;SDS011;36061;48.116;11.612;2023-08-06T06:46:32;1.90;;;1.40;;
50161;SDS011;36061;48.116;11.612;2023-08-06T06:49:00;2.20;;;1.30;;
50161;SDS011;36061;48.116;11.612;2023-08-06T06:51:27;1.97;;;1.20;;
50161;SDS011;36061;48.116;11.612;2023-08-06T06:53:54;1.53;;;1.10;;
50161;SDS011;36061;48.116;11.612;2023-08-06T06:56:21;2.13;;;1.37;;
50161;SDS011;36061;48.116;11.612;2023-08-06T06:58:49;1.40;;;1.27;;
50161;SDS011;36061;48.116;11.612;2023-08-06T07:01:17;3.13;;;1.13;;
50161;SDS011;36061;48.116;11.612;2023-08-06T07:03:44;1.37;;;1.17;;
50161;SDS011;36061;48.116;11.612;2023-08-06T07:06:12;1.77;;;1.30;;
50161;SDS011;36061;48.116;11.612;2023-08-06T07:08:40;1.27;;;1.00;;
50161;SDS011;36061;48.116;11.612;2023-08-06T07:11:08;1.97;;;1.60;;
50161;SDS011;36061;48.116;11.612;2023-08-06T07:13:35;3.07;;;1.40;;
50161;SDS011;36061;48.116;11.612;2023-08-06T07:16:03;1.60;;;1.10;;
50161;SDS011;36061;48.116;11.612;2023-08-06T07:18:32;2.07;;;1.40;;
50161;SDS011;36061;48.116;11.612;2023-08-06T07:20:59;1.50;;;1.10;;
50161;SDS011;36061;48.116;11.612;2023-08-06T07:23:26;3.13;;;1.03;;
50161;SDS011;36061;48.116;11.612;2023-08-06T07:25:53;1.17;;;1.07;;
50161;SDS011;36061;48.116;11.612;2023-08-06T07:28:20;1.30;;;0.83;;
50161;SDS011;36061;48.116;11.612;2023-08-06T07:30:48;2.73;;;0.97;;
50161;SDS011;36061;48.116;11.612;2023-08-06T07:33:15;1.40;;;0.83;;
50161;SDS011;36061;48.116;11.612;2023-08-06T07:35:44;0.67;;;0.67;;
50161;SDS011;36061;48.116;11.612;2023-08-06T07:38:11;1.50;;;0.80;;
50161;SDS011;36061;48.116;11.612;2023-08-06T07:40:38;1.60;;;1.00;;
50161;SDS011;36061;48.116;11.612;2023-08-06T07:43:06;1.20;;;0.90;;
50161;SDS011;36061;48.116;11.612;2023-08-06T07:45:33;1.90;;;1.00;;
50161;SDS011;36061;48.116;11.612;2023-08-06T07:48:01;1.90;;;0.70;;
50161;SDS011;36061;48.116;11.612;2023-08-06T07:50:29;1.63;;;0.97;;
50161;SDS011;36061;48.116;11.612;2023-08-06T07:52:58;1.03;;;0.93;;
50161;SDS011;36061;48.116;11.612;2023-08-06T07:55:25;0.90;;;0.83;;
50161;SDS011;36061;48.116;11.612;2023-08-06T07:57:53;0.80;;;0.80;;
50161;SDS011;36061;48.116;11.612;2023-08-06T08:00:20;1.63;;;0.93;;
50161;SDS011;36061;48.116;11.612;2023-08-06T08:02:47;1.00;;;0.80;;
50161;SDS011;36061;48.116;11.612;2023-08-06T08:05:15;2.67;;;1.17;;
50161;SDS011;36061;48.116;11.612;2023-08-06T08:07:42;1.50;;;0.83;;
50161;SDS011;36061;48.116;11.612;2023-08-06T08:10:11;0.87;;;0.63;;
50161;SDS011;36061;48.116;11.612;2023-08-06T08:12:38;0.90;;;0.73;;
50161;SDS011;36061;48.116;11.612;2023-08-06T08:15:06;1.33;;;1.00;;
50161;SDS011;36061;48.116;11.612;2023-08-06T08:17:33;1.57;;;0.90;;
50161;SDS011;36061;48.116;11.612;2023-08-06T08:20:00;1.87;;;0.90;;
50161;SDS011;36061;48.116;11.612;2023-08-06T08:22:28;2.80;;;0.80;;
50161;SDS011;36061;48.116;11.612;2023-08-06T08:24:55;1.70;;;0.80;;
50161;SDS011;36061;48.116;11.612;2023-08-06T08:27:24;2.57;;;0.90;;
50161;SDS011;36061;48.116;11.612;2023-08-06T08:29:51;1.30;;;0.67;;
50161;SDS011;36061;48.116;11.612;2023-08-06T08:32:18;1.10;;;0.90;;
50161;SDS011;36061;48.116;11.612;2023-08-06T08:34:46;2.13;;;0.87;;
50161;SDS011;36061;48.116;11.612;2023-08-06T08:37:13;3.17;;;0.70;;
50161;SDS011;36061;48.116;11.612;2023-08-06T08:39:40;2.80;;;0.70;;
50161;SDS011;36061;48.116;11.612;2023-08-06T08:42:08;1.27;;;1.00;;
50161;SDS011;36061;48.116;11.612;2023-08-06T08:44:37;2.00;;;0.73;;
50161;SDS011;36061;48.116;11.612;2023-08-06T08:47:06;0.50;;;0.50;;
50161;SDS011;36061;48.116;11.612;2023-08-06T08:49:34;0.60;;;0.40;;
50161;SDS011;36061;48.116;11.612;2023-08-06T08:52:03;1.80;;;0.70;;
50161;SDS011;36061;48.116;11.612;2023-08-06T08:54:31;2.33;;;0.70;;
50161;SDS011;36061;48.116;11.612;2023-08-06T08:56:59;0.67;;;0.43;;
50161;SDS011;36061;48.116;11.612;2023-08-06T08:59:27;1.17;;;0.60;;
50161;SDS011;36061;48.116;11.612;2023-08-06T09:01:56;1.80;;;0.80;;
50161;SDS011;36061;48.116;11.612;2023-08-06T09:04:24;0.90;;;0.60;;
50161;SDS011;36061;48.116;11.612;2023-08-06T09:06:57;1.47;;;0.70;;
50161;SDS011;36061;48.116;11.612;2023-08-06T09:09:26;2.07;;;0.80;;
50161;SDS011;36061;48.116;11.612;2023-08-06T09:11:58;0.77;;;0.60;;
50161;SDS011;36061;48.116;11.612;2023-08-06T09:14:27;2.07;;;0.50;;
50161;SDS011;36061;48.116;11.612;2023-08-06T09:16:56;0.63;;;0.60;;
50161;SDS011;36061;48.116;11.612;2023-08-06T09:19:23;0.60;;;0.60;;
50161;SDS011;36061;48.116;11.612;2023-08-06T09:21:51;1.93;;;0.57;;
50161;SDS011;36061;48.116;11.612;2023-08-06T09:24:19;0.87;;;0.50;;
50161;SDS011;36061;48.116;11.612;2023-08-06T09:26:47;2.30;;;0.40;;
50161;SDS011;36061;48.116;11.612;2023-08-06T09:29:14;1.57;;;0.50;;
50161;SDS011;36061;48.116;11.612;2023-08-06T09:31:41;0.53;;;0.43;;
50161;SDS011;36061;48.116;11.612;2023-08-06T09:34:11;0.47;;;0.47;;
50161;SDS011;36061;48.116;11.612;2023-08-06T09:36:41;0.30;;;0.30;;
50161;SDS011;36061;48.116;11.612;2023-08-06T09:39:14;0.40;;;0.40;;
50161;SDS011;36061;48.116;11.612;2023-08-06T09:41:43;0.87;;;0.53;;
50161;SDS011;36061;48.116;11.612;2023-08-06T09:44:16;0.37;;;0.37;;
50161;SDS011;36061;48.116;11.612;2023-08-06T09:46:47;1.03;;;0.40;;
50161;SDS011;36061;48.116;11.612;2023-08-06T09:49:17;0.40;;;0.40;;
50161;SDS011;36061;48.116;11.612;2023-08-06T09:51:45;2.40;;;0.30;;
50161;SDS011;36061;48.116;11.612;2023-08-06T09:54:16;2.87;;;0.50;;
50161;SDS011;36061;48.116;11.612;2023-08-06T09:56:44;0.40;;;0.40;;
50161;SDS011;36061;48.116;11.612;2023-08-06T09:59:11;1.10;;;0.40;;
50161;SDS011;36061;48.116;11.612;2023-08-06T10:01:41;0.40;;;0.40;;
50161;SDS011;36061;48.116;11.612;2023-08-06T10:04:08;3.00;;;0.50;;
50161;SDS011;36061;48.116;11.612;2023-08-06T10:06:38;0.93;;;0.50;;
50161;SDS011;36061;48.116;11.612;2023-08-06T10:09:06;1.03;;;0.57;;
50161;SDS011;36061;48.116;11.612;2023-08-06T10:11:34;0.40;;;0.40;;
50161;SDS011;36061;48.116;11.612;2023-08-06T10:14:04;2.37;;;1.03;;
50161;SDS011;36061;48.116;11.612;2023-08-06T10:16:36;0.50;;;0.50;;
50161;SDS011;36061;48.116;11.612;2023-08-06T10:19:05;0.50;;;0.40;;
50161;SDS011;36061;48.116;11.612;2023-08-06T10:21:35;1.40;;;0.77;;
50161;SDS011;36061;48.116;11.612;2023-08-06T10:24:06;0.80;;;0.60;;
50161;SDS011;36061;48.116;11.612;2023-08-06T10:26:36;0.50;;;0.50;;
50161;SDS011;36061;48.116;11.612;2023-08-06T10:32:04;1.80;;;0.40;;
50161;SDS011;36061;48.116;11.612;2023-08-06T10:37:25;0.50;;;0.50;;
50161;SDS011;36061;48.116;11.612;2023-08-06T10:40:02;4.33;;;0.57;;
50161;SDS011;36061;48.116;11.612;2023-08-06T10:42:32;1.13;;;0.30;;
50161;SDS011;36061;48.116;11.612;2023-08-06T10:45:12;2.00;;;0.50;;
50161;SDS011;36061;48.116;11.612;2023-08-06T10:47:43;0.40;;;0.40;;
50161;SDS011;36061;48.116;11.612;2023-08-06T10:50:11;0.80;;;0.47;;
50161;SDS011;36061;48.116;11.612;2023-08-06T10:52:43;0.43;;;0.43;;
50161;SDS011;36061;48.116;11.612;2023-08-06T10:55:12;0.77;;;0.53;;
50161;SDS011;36061;48.116;11.612;2023-08-06T10:57:39;0.80;;;0.30;;
50161;SDS011;36061;48.116;11.612;2023-08-06T11:00:07;0.30;;;0.30;;
50161;SDS011;36061;48.116;11.612;2023-08-06T11:02:38;0.20;;;0.20;;
50161;SDS011;36061;48.116;11.612;2023-08-06T11:05:06;0.40;;;0.40;;
50161;SDS011;36061;48.116;11.612;2023-08-06T11:07:34;0.43;;;0.20;;
50161;SDS011;36061;48.116;11.612;2023-08-06T11:10:04;0.63;;;0.47;;
50161;SDS011;36061;48.116;11.612;2023-08-06T11:12:32;0.40;;;0.40;;
50161;SDS011;36061;48.116;11.612;2023-08-06T11:15:00;0.40;;;0.40;;
50161;SDS011;36061;48.116;11.612;2023-08-06T11:17:31;0.83;;;0.73;;
50161;SDS011;36061;48.116;11.612;2023-08-06T11:19:59;0.30;;;0.30;;
50161;SDS011;36061;48.116;11.612;2023-08-06T11:22:27;0.50;;;0.50;;
50161;SDS011;36061;48.116;11.612;2023-08-06T11:24:54;0.43;;;0.43;;
50161;SDS011;36061;48.116;11.612;2023-08-06T11:27:25;0.50;;;0.43;;
50161;SDS011;36061;48.116;11.612;2023-08-06T11:29:53;0.40;;;0.40;;
50161;SDS011;36061;48.116;11.612;2023-08-06T11:32:20;0.30;;;0.30;;
50161;SDS011;36061;48.116;11.612;2023-08-06T11:34:47;0.57;;;0.47;;
50161;SDS011;36061;48.116;11.612;2023-08-06T11:37:15;0.40;;;0.40;;
50161;SDS011;36061;48.116;11.612;2023-08-06T11:39:44;0.20;;;0.20;;
50161;SDS011;36061;48.116;11.612;2023-08-06T11:42:14;0.40;;;0.40;;
50161;SDS011;36061;48.116;11.612;2023-08-06T11:44:43;0.30;;;0.30;;
50161;SDS011;36061;48.116;11.612;2023-08-06T11:47:14;0.40;;;0.40;;
50161;SDS011;36061;48.116;11.612;2023-08-06T11:49:44;0.40;;;0.40;;
50161;SDS011;36061;48.116;11.612;2023-08-06T11:52:13;0.40;;;0.40;;
50161;SDS011;36061;48.116;11.612;2023-08-06T11:54:44;1.27;;;0.47;;
50161;SDS011;36061;48.116;11.612;2023-08-06T11:57:11;0.40;;;0.40;;
50161;SDS011;36061;48.116;11.612;2023-08-06T11:59:39;0.33;;;0.33;;
50161;SDS011;36061;48.116;11.612;2023-08-06T12:02:11;0.47;;;0.47;;
50161;SDS011;36061;48.116;11.612;2023-08-06T12:04:57;2.27;;;0.57;;
50161;SDS011;36061;48.116;11.612;2023-08-06T12:07:30;0.47;;;0.40;;
50161;SDS011;36061;48.116;11.612;2023-08-06T12:09:58;0.67;;;0.50;;
50161;SDS011;36061;48.116;11.612;2023-08-06T12:12:26;0.47;;;0.47;;
50161;SDS011;36061;48.116;11.612;2023-08-06T12:14:53;1.70;;;0.57;;
50161;SDS011;36061;48.116;11.612;2023-08-06T12:17:22;0.30;;;0.30;;
50161;SDS011;36061;48.116;11.612;2023-08-06T12:19:50;0.40;;;0.40;;
50161;SDS011;36061;48.116;11.612;2023-08-06T12:22:17;1.17;;;0.57;;
50161;SDS011;36061;48.116;11.612;2023-08-06T12:24:45;0.40;;;0.40;;
50161;SDS011;36061;48.116;11.612;2023-08-06T12:27:13;2.10;;;1.90;;
50161;SDS011;36061;48.116;11.612;2023-08-06T12:29:41;1.03;;;0.30;;
50161;SDS011;36061;48.116;11.612;2023-08-06T12:32:09;0.60;;;0.60;;
50161;SDS011;36061;48.116;11.612;2023-08-06T12:34:39;0.50;;;0.50;;
50161;SDS011;36061;48.116;11.612;2023-08-06T12:37:07;0.73;;;0.47;;
50161;SDS011;36061;48.116;11.612;2023-08-06T12:39:34;0.60;;;0.60;;
50161;SDS011;36061;48.116;11.612;2023-08-06T12:42:02;0.50;;;0.50;;
50161;SDS011;36061;48.116;11.612;2023-08-06T12:44:31;0.50;;;0.50;;
50161;SDS011;36061;48.116;11.612;2023-08-06T12:46:58;0.50;;;0.50;;
50161;SDS011;36061;48.116;11.612;2023-08-06T12:49:25;1.50;;;0.50;;
50161;SDS011;36061;48.116;11.612;2023-08-06T12:51:55;0.40;;;0.40;;
50161;SDS011;36061;48.116;11.612;2023-08-06T12:54:25;0.83;;;0.53;;
50161;SDS011;36061;48.116;11.612;2023-08-06T12:56:52;0.73;;;0.50;;
50161;SDS011;36061;48.116;11.612;2023-08-06T12:59:20;0.40;;;0.40;;
50161;SDS011;36061;48.116;11.612;2023-08-06T13:01:47;0.97;;;0.60;;
50161;SDS011;36061;48.116;11.612;2023-08-06T13:04:14;0.83;;;0.40;;
50161;SDS011;36061;48.116;11.612;2023-08-06T13:06:42;2.47;;;0.57;;
50161;SDS011;36061;48.116;11.612;2023-08-06T13:09:10;0.47;;;0.47;;
50161;SDS011;36061;48.116;11.612;2023-08-06T13:11:38;0.40;;;0.40;;
50161;SDS011;36061;48.116;11.612;2023-08-06T13:14:06;0.63;;;0.40;;
50161;SDS011;36061;48.116;11.612;2023-08-06T13:16:34;0.90;;;0.47;;
50161;SDS011;36061;48.116;11.612;2023-08-06T13:19:02;0.50;;;0.50;;
50161;SDS011;36061;48.116;11.612;2023-08-06T13:21:31;0.73;;;0.50;;
50161;SDS011;36061;48.116;11.612;2023-08-06T13:23:59;0.40;;;0.40;;
50161;SDS011;36061;48.116;11.612;2023-08-06T13:26:28;0.40;;;0.40;;
50161;SDS011;36061;48.116;11.612;2023-08-06T13:28:56;0.63;;;0.63;;
50161;SDS011;36061;48.116;11.612;2023-08-06T13:31:24;0.47;;;0.40;;
50161;SDS011;36061;48.116;11.612;2023-08-06T13:33:51;0.37;;;0.37;;
50161;SDS011;36061;48.116;11.612;2023-08-06T13:36:20;1.10;;;0.50;;
50161;SDS011;36061;48.116;11.612;2023-08-06T13:38:48;0.30;;;0.30;;
50161;SDS011;36061;48.116;11.612;2023-08-06T13:41:15;0.50;;;0.50;;
50161;SDS011;36061;48.116;11.612;2023-08-06T13:43:44;0.30;;;0.30;;
50161;SDS011;36061;48.116;11.612;2023-08-06T13:46:11;0.80;;;0.40;;
50161;SDS011;36061;48.116;11.612;2023-08-06T13:48:43;3.93;;;1.07;;
50161;SDS011;36061;48.116;11.612;2023-08-06T13:51:11;0.63;;;0.50;;
50161;SDS011;36061;48.116;11.612;2023-08-06T13:53:40;0.40;;;0.40;;
50161;SDS011;36061;48.116;11.612;2023-08-06T13:56:08;1.40;;;0.50;;
50161;SDS011;36061;48.116;11.612;2023-08-06T13:58:36;0.70;;;0.70;;
50161;SDS011;36061;48.116;11.612;2023-08-06T14:01:05;0.50;;;0.50;;
50161;SDS011;36061;48.116;11.612;2023-08-06T14:03:37;0.50;;;0.50;;
50161;SDS011;36061;48.116;11.612;2023-08-06T14:06:04;1.03;;;0.50;;
50161;SDS011;36061;48.116;11.612;2023-08-06T14:08:31;0.67;;;0.50;;
50161;SDS011;36061;48.116;11.612;2023-08-06T14:10:59;0.50;;;0.50;;
50161;SDS011;36061;48.116;11.612;2023-08-06T14:13:26;0.53;;;0.53;;
50161;SDS011;36061;48.116;11.612;2023-08-06T14:15:53;0.63;;;0.40;;
50161;SDS011;36061;48.116;11.612;2023-08-06T14:18:22;0.40;;;0.40;;
50161;SDS011;36061;48.116;11.612;2023-08-06T14:20:49;1.37;;;0.40;;
50161;SDS011;36061;48.116;11.612;2023-08-06T14:23:16;0.63;;;0.53;;
50161;SDS011;36061;48.116;11.612;2023-08-06T14:25:43;0.57;;;0.57;;
50161;SDS011;36061;48.116;11.612;2023-08-06T14:28:10;1.03;;;0.60;;
50161;SDS011;36061;48.116;11.612;2023-08-06T14:30:38;0.57;;;0.50;;
50161;SDS011;36061;48.116;11.612;2023-08-06T14:33:05;0.50;;;0.50;;
50161;SDS011;36061;48.116;11.612;2023-08-06T14:35:33;0.50;;;0.50;;
50161;SDS011;36061;48.116;11.612;2023-08-06T14:38:01;1.43;;;0.77;;
50161;SDS011;36061;48.116;11.612;2023-08-06T14:40:28;0.50;;;0.40;;
50161;SDS011;36061;48.116;11.612;2023-08-06T14:42:59;0.87;;;0.67;;
50161;SDS011;36061;48.116;11.612;2023-08-06T14:45:26;1.37;;;0.63;;